createdAt,value
2018-11-13T00:00:39.293Z,20.45
2018-11-13T00:03:07.610Z,18.40
2018-11-13T00:05:35.816Z,19.65
2018-11-13T00:08:04.270Z,20.90
2018-11-13T00:10:32.544Z,23.30
2018-11-13T00:13:00.871Z,22.27
2018-11-13T00:15:29.149Z,22.48
2018-11-13T00:17:57.412Z,21.97
2018-11-13T00:20:26.321Z,24.18
2018-11-13T00:22:54.577Z,23.38
2018-11-13T00:25:22.828Z,21.17
2018-11-13T00:27:51.071Z,22.10
2018-11-13T00:30:20.311Z,22.55
2018-11-13T00:32:48.637Z,20.97
2018-11-13T00:35:17.699Z,21.77
2018-11-13T00:37:46.723Z,25.43
2018-11-13T00:40:15.248Z,24.82
2018-11-13T00:42:44.360Z,19.15
2018-11-13T00:45:12.621Z,27.93
2018-11-13T00:47:40.863Z,27.60
2018-11-13T00:50:11.432Z,24.00
2018-11-13T00:52:40.127Z,21.33
2018-11-13T00:55:08.649Z,18.92
2018-11-13T00:57:37.694Z,26.85
2018-11-13T01:00:10.139Z,20.12
2018-11-13T01:02:38.485Z,26.23
2018-11-13T01:05:08.489Z,22.07
2018-11-13T01:07:36.756Z,22.37
2018-11-13T01:10:05.086Z,19.67
2018-11-13T01:12:33.340Z,19.40
2018-11-13T01:15:02.033Z,25.57
2018-11-13T01:17:30.271Z,26.37
2018-11-13T01:19:58.517Z,21.97
2018-11-13T01:22:26.755Z,21.68
2018-11-13T01:24:55.013Z,21.93
2018-11-13T01:27:23.241Z,20.88
2018-11-13T01:29:55.485Z,24.67
2018-11-13T01:32:25.017Z,22.98
2018-11-13T01:34:53.495Z,24.87
2018-11-13T01:37:21.802Z,27.67
2018-11-13T01:39:50.038Z,25.85
2018-11-13T01:42:18.250Z,20.57
2018-11-13T01:44:46.441Z,21.82
2018-11-13T01:47:14.654Z,25.62
2018-11-13T01:49:42.895Z,21.40
2018-11-13T01:52:11.177Z,21.10
2018-11-13T01:54:39.446Z,21.85
2018-11-13T01:57:07.757Z,24.32
2018-11-13T01:59:35.950Z,25.30
2018-11-13T02:02:04.266Z,22.22
2018-11-13T02:04:32.910Z,21.12
2018-11-13T02:07:01.215Z,23.60
2018-11-13T02:09:29.489Z,21.73
2018-11-13T02:11:57.768Z,21.65
2018-11-13T02:14:26.028Z,23.35
2018-11-13T02:16:54.234Z,22.07
2018-11-13T02:19:22.441Z,23.02
2018-11-13T02:21:50.717Z,26.10
2018-11-13T02:24:18.968Z,22.52
2018-11-13T02:26:47.185Z,20.95
2018-11-13T02:29:15.462Z,23.83
2018-11-13T02:31:43.766Z,24.10
2018-11-13T02:34:12.024Z,24.10
2018-11-13T02:36:40.292Z,21.50
2018-11-13T02:39:09.430Z,23.62
2018-11-13T02:41:37.740Z,23.40
2018-11-13T02:44:06.235Z,23.27
2018-11-13T02:46:34.526Z,27.30
2018-11-13T02:49:02.728Z,30.68
2018-11-13T02:51:30.945Z,24.32
2018-11-13T02:53:59.292Z,23.77
2018-11-13T02:56:27.500Z,22.32
2018-11-13T02:58:55.717Z,24.82
2018-11-13T03:01:23.957Z,28.02
2018-11-13T03:03:52.266Z,26.15
2018-11-13T03:06:20.499Z,21.62
2018-11-13T03:08:48.721Z,35.17
2018-11-13T03:11:16.977Z,24.92
2018-11-13T03:13:45.317Z,23.42
2018-11-13T03:16:13.473Z,32.80
2018-11-13T03:18:41.741Z,25.57
2018-11-13T03:21:10.018Z,24.02
2018-11-13T03:23:38.287Z,29.18
2018-11-13T03:26:06.957Z,26.50
2018-11-13T03:28:35.265Z,28.70
2018-11-13T03:31:03.627Z,24.25
2018-11-13T03:33:31.728Z,28.15
2018-11-13T03:35:59.942Z,26.70
2018-11-13T03:38:28.243Z,28.62
2018-11-13T03:40:56.442Z,31.25
2018-11-13T03:43:24.710Z,33.58
2018-11-13T03:45:53.554Z,32.53
2018-11-13T03:48:21.794Z,32.25
2018-11-13T03:50:50.149Z,28.20
2018-11-13T03:53:18.409Z,32.70
2018-11-13T03:55:46.609Z,31.48
2018-11-13T03:58:14.882Z,33.38
2018-11-13T04:00:43.146Z,35.35
2018-11-13T04:03:11.410Z,31.57
2018-11-13T04:05:39.697Z,30.75
2018-11-13T04:08:07.966Z,37.58
2018-11-13T04:10:36.303Z,34.03
2018-11-13T04:13:04.638Z,38.15
2018-11-13T04:15:32.914Z,33.10
2018-11-13T04:18:01.153Z,40.30
2018-11-13T04:20:29.350Z,34.73
2018-11-13T04:22:57.621Z,38.48
2018-11-13T04:25:25.870Z,36.40
2018-11-13T04:27:54.090Z,40.85
2018-11-13T04:30:22.403Z,36.73
2018-11-13T04:32:50.653Z,37.75
2018-11-13T04:35:19.282Z,37.83
2018-11-13T04:37:47.510Z,43.15
2018-11-13T04:40:16.956Z,38.25
2018-11-13T04:42:46.487Z,40.08
2018-11-13T04:45:15.866Z,40.00
2018-11-13T04:47:45.368Z,37.73
2018-11-13T04:50:15.050Z,38.05
2018-11-13T04:52:43.666Z,41.65
2018-11-13T04:55:12.191Z,38.30
2018-11-13T04:57:41.824Z,38.85
2018-11-13T05:00:11.557Z,40.85
2018-11-13T05:02:40.545Z,34.88
2018-11-13T05:05:09.677Z,35.05
2018-11-13T05:07:38.002Z,36.23
2018-11-13T05:10:07.769Z,37.83
2018-11-13T05:12:36.018Z,38.53
2018-11-13T05:15:04.629Z,40.35
2018-11-13T05:17:33.277Z,36.65
2018-11-13T05:20:01.552Z,35.83
2018-11-13T05:22:29.890Z,37.93
2018-11-13T05:24:58.190Z,33.23
2018-11-13T05:27:26.411Z,34.80
2018-11-13T05:29:54.728Z,34.95
2018-11-13T05:32:23.022Z,28.67
2018-11-13T05:34:51.335Z,32.70
2018-11-13T05:37:19.558Z,31.57
2018-11-13T05:39:47.793Z,29.63
2018-11-13T05:42:16.063Z,37.88
2018-11-13T05:44:44.405Z,34.00
2018-11-13T05:47:12.723Z,35.45
2018-11-13T05:49:40.994Z,28.67
2018-11-13T05:52:09.231Z,30.48
2018-11-13T05:54:37.461Z,29.55
2018-11-13T05:57:05.763Z,31.82
2018-11-13T05:59:34.082Z,32.45
2018-11-13T06:02:02.384Z,32.08
2018-11-13T06:04:30.636Z,25.15
2018-11-13T06:06:58.989Z,33.58
2018-11-13T06:09:27.253Z,31.20
2018-11-13T06:11:55.719Z,32.73
2018-11-13T06:14:23.927Z,32.40
2018-11-13T06:16:52.133Z,29.50
2018-11-13T06:19:20.405Z,28.02
2018-11-13T06:21:48.645Z,31.35
2018-11-13T06:24:16.917Z,28.85
2018-11-13T06:26:45.234Z,30.68
2018-11-13T06:29:13.490Z,25.82
2018-11-13T06:31:41.772Z,31.02
2018-11-13T06:34:09.983Z,33.67
2018-11-13T06:36:38.223Z,27.13
2018-11-13T06:39:08.461Z,26.62
2018-11-13T06:41:36.726Z,26.42
2018-11-13T06:44:05.034Z,27.22
2018-11-13T06:46:33.335Z,28.47
2018-11-13T06:49:01.769Z,26.05
2018-11-13T06:51:30.045Z,23.87
2018-11-13T06:54:09.752Z,27.90
2018-11-13T06:56:38.014Z,28.50
2018-11-13T06:59:06.262Z,24.75
2018-11-13T07:01:41.235Z,25.57
2018-11-13T07:04:09.494Z,22.75
2018-11-13T07:06:37.749Z,26.07
2018-11-13T07:09:08.044Z,20.72
2018-11-13T07:11:36.314Z,21.27
2018-11-13T07:14:04.625Z,22.85
2018-11-13T07:16:32.928Z,22.67
2018-11-13T07:19:01.314Z,21.45
2018-11-13T07:21:29.555Z,21.60
2018-11-13T07:23:57.817Z,23.73
2018-11-13T07:26:27.022Z,23.57
2018-11-13T07:28:55.342Z,17.25
2018-11-13T07:31:23.608Z,19.62
2018-11-13T07:33:51.853Z,18.07
2018-11-13T07:36:20.166Z,20.23
2018-11-13T07:38:48.402Z,16.93
2018-11-13T07:41:16.711Z,18.00
2018-11-13T07:43:44.853Z,17.75
2018-11-13T07:46:13.093Z,17.42
2018-11-13T07:48:41.369Z,16.65
2018-11-13T07:51:09.739Z,13.48
2018-11-13T07:53:38.007Z,14.90
2018-11-13T07:56:06.281Z,8.90
2018-11-13T07:58:34.558Z,10.13
2018-11-13T08:01:02.780Z,13.78
2018-11-13T08:03:39.415Z,12.63
2018-11-13T08:06:07.945Z,11.08
2018-11-13T08:08:36.181Z,8.55
2018-11-13T08:11:05.058Z,9.85
2018-11-13T08:13:34.050Z,7.80
2018-11-13T08:16:02.407Z,8.98
2018-11-13T08:18:31.323Z,6.97
2018-11-13T08:20:59.519Z,7.95
2018-11-13T08:23:27.785Z,6.20
2018-11-13T08:25:56.022Z,6.97
2018-11-13T08:28:24.309Z,6.03
2018-11-13T08:30:52.518Z,6.37
2018-11-13T08:33:20.791Z,4.35
2018-11-13T08:35:49.117Z,3.60
2018-11-13T08:38:17.382Z,7.85
2018-11-13T08:40:45.666Z,2.55
2018-11-13T08:43:14.021Z,3.00
2018-11-13T08:45:42.304Z,2.47
2018-11-13T08:48:10.582Z,4.00
2018-11-13T08:50:38.960Z,3.35
2018-11-13T08:53:07.114Z,2.60
2018-11-13T08:55:35.429Z,2.90
2018-11-13T08:58:03.716Z,2.70
2018-11-13T09:00:32.020Z,2.37
2018-11-13T09:03:00.301Z,5.85
2018-11-13T09:05:28.520Z,2.75
2018-11-13T09:07:56.809Z,3.27
2018-11-13T09:10:25.076Z,4.08
2018-11-13T09:12:53.314Z,5.58
2018-11-13T09:15:22.316Z,4.10
2018-11-13T09:17:50.545Z,4.03
2018-11-13T09:20:19.904Z,4.55
2018-11-13T09:22:48.181Z,5.62
2018-11-13T09:25:19.668Z,3.85
2018-11-13T09:27:48.002Z,3.08
2018-11-13T09:30:17.715Z,3.62
2018-11-13T09:32:46.447Z,3.58
2018-11-13T09:35:15.828Z,2.35
2018-11-13T09:37:44.123Z,3.55
2018-11-13T09:40:15.095Z,2.22
2018-11-13T09:42:44.309Z,2.25
2018-11-13T09:45:13.357Z,3.72
2018-11-13T09:47:41.963Z,2.33
2018-11-13T09:50:12.902Z,2.08
2018-11-13T09:52:42.452Z,3.37
2018-11-13T09:55:13.026Z,6.55
2018-11-13T09:57:41.410Z,2.15
2018-11-13T10:00:17.076Z,1.92
2018-11-13T10:02:47.073Z,4.90
2018-11-13T10:05:15.997Z,4.47
2018-11-13T10:07:44.570Z,2.22
2018-11-13T10:10:12.989Z,1.30
2018-11-13T10:12:41.215Z,3.65
2018-11-13T10:15:14.018Z,5.70
2018-11-13T10:17:42.454Z,3.85
2018-11-13T10:20:12.318Z,2.58
2018-11-13T10:22:41.569Z,1.80
2018-11-13T10:25:10.612Z,4.75
2018-11-13T10:27:39.136Z,5.28
2018-11-13T10:30:10.638Z,3.65
2018-11-13T10:32:39.216Z,3.95
2018-11-13T10:35:08.936Z,3.35
2018-11-13T10:37:37.875Z,3.45
2018-11-13T10:40:07.213Z,4.08
2018-11-13T10:42:35.622Z,2.60
2018-11-13T10:45:04.396Z,3.52
2018-11-13T10:47:32.709Z,3.60
2018-11-13T10:50:01.123Z,2.70
2018-11-13T10:52:29.452Z,5.25
2018-11-13T10:54:57.773Z,5.10
2018-11-13T10:57:26.042Z,4.50
2018-11-13T10:59:54.442Z,2.72
2018-11-13T11:03:29.757Z,6.55
2018-11-13T11:05:57.994Z,3.37
2018-11-13T11:08:26.337Z,6.80
2018-11-13T11:10:54.667Z,4.80
2018-11-13T11:13:23.065Z,6.03
2018-11-13T11:15:51.234Z,3.95
2018-11-13T11:18:19.590Z,6.20
2018-11-13T11:20:47.885Z,5.20
2018-11-13T11:23:16.171Z,2.65
2018-11-13T11:25:44.515Z,7.85
2018-11-13T11:28:13.504Z,5.30
2018-11-13T11:30:41.872Z,2.10
2018-11-13T11:33:10.106Z,5.87
2018-11-13T11:35:38.325Z,5.17
2018-11-13T11:38:06.695Z,6.72
2018-11-13T11:40:35.045Z,5.67
2018-11-13T11:43:03.381Z,5.83
2018-11-13T11:45:31.667Z,5.40
2018-11-13T11:47:59.911Z,6.65
2018-11-13T11:50:28.206Z,2.40
2018-11-13T11:52:56.540Z,7.42
2018-11-13T11:55:24.815Z,12.00
2018-11-13T11:57:53.107Z,7.47
2018-11-13T12:00:32.506Z,7.75
2018-11-13T12:03:00.915Z,6.72
2018-11-13T12:05:29.182Z,8.63
2018-11-13T12:07:57.419Z,4.40
2018-11-13T12:10:25.803Z,9.63
2018-11-13T12:12:54.624Z,4.10
2018-11-13T12:15:22.906Z,5.45
2018-11-13T12:17:51.189Z,5.65
2018-11-13T12:20:19.491Z,6.47
2018-11-13T12:22:47.797Z,4.53
2018-11-13T12:25:17.426Z,4.00
2018-11-13T12:27:45.762Z,9.98
2018-11-13T12:30:18.130Z,6.00
2018-11-13T12:32:47.159Z,2.22
2018-11-13T12:35:16.444Z,6.75
2018-11-13T12:37:44.786Z,8.80
2018-11-13T12:40:14.548Z,4.62
2018-11-13T12:42:46.078Z,5.60
2018-11-13T12:45:12.645Z,9.68
2018-11-13T12:47:41.662Z,6.85
2018-11-13T12:50:10.733Z,8.70
2018-11-13T12:52:38.929Z,8.33
2018-11-13T12:55:09.302Z,7.33
2018-11-13T12:57:37.554Z,8.90
2018-11-13T13:00:14.721Z,4.72
2018-11-13T13:02:43.035Z,8.75
2018-11-13T13:05:11.319Z,10.13
2018-11-13T13:07:39.978Z,6.00
2018-11-13T13:10:10.049Z,8.03
2018-11-13T13:12:38.400Z,9.60
2018-11-13T13:15:08.834Z,8.95
2018-11-13T13:17:37.437Z,5.08
2018-11-13T13:20:07.916Z,8.53
2018-11-13T13:22:36.533Z,9.73
2018-11-13T13:25:05.928Z,6.15
2018-11-13T13:27:34.146Z,10.82
2018-11-13T13:30:02.417Z,6.65
2018-11-13T13:32:30.687Z,6.65
2018-11-13T13:34:58.915Z,8.00
2018-11-13T13:37:27.321Z,4.97
2018-11-13T13:39:55.659Z,4.53
2018-11-13T13:42:23.861Z,8.83
2018-11-13T13:44:52.198Z,8.48
2018-11-13T13:47:20.483Z,5.78
2018-11-13T13:49:49.758Z,6.35
2018-11-13T13:52:17.997Z,5.28
2018-11-13T13:54:46.302Z,9.85
2018-11-13T13:57:14.582Z,5.80
2018-11-13T13:59:42.922Z,7.22
2018-11-13T14:02:11.160Z,10.45
2018-11-13T14:04:39.406Z,8.93
2018-11-13T14:07:07.681Z,17.98
2018-11-13T14:09:36.047Z,5.50
2018-11-13T14:12:04.486Z,6.42
2018-11-13T14:14:32.765Z,7.97
2018-11-13T14:17:01.267Z,9.63
2018-11-13T14:19:29.525Z,14.13
2018-11-13T14:21:57.822Z,11.48
2018-11-13T14:24:26.118Z,8.35
2018-11-13T14:26:54.708Z,10.93
2018-11-13T14:29:23.224Z,10.28
2018-11-13T14:31:51.506Z,8.53
2018-11-13T14:34:19.801Z,13.85
2018-11-13T14:36:48.032Z,8.93
2018-11-13T14:39:16.406Z,9.08
2018-11-13T14:41:44.625Z,9.10
2018-11-13T14:44:12.921Z,8.30
2018-11-13T14:46:41.380Z,9.60
2018-11-13T14:49:09.594Z,8.20
2018-11-13T14:51:37.879Z,7.05
2018-11-13T14:54:06.145Z,9.83
2018-11-13T14:56:34.569Z,12.95
2018-11-13T14:59:02.802Z,6.42
2018-11-13T15:01:31.135Z,9.83
2018-11-13T15:03:59.394Z,8.23
2018-11-13T15:06:27.727Z,9.68
2018-11-13T15:08:55.962Z,8.33
2018-11-13T15:11:24.234Z,7.47
2018-11-13T15:13:52.510Z,5.12
2018-11-13T15:16:20.814Z,5.97
2018-11-13T15:18:49.095Z,14.63
2018-11-13T15:21:17.284Z,8.70
2018-11-13T15:23:45.537Z,7.78
2018-11-13T15:26:13.880Z,12.47
2018-11-13T15:28:42.087Z,21.05
2018-11-13T15:31:10.346Z,12.10
2018-11-13T15:33:38.658Z,10.93
2018-11-13T15:36:06.886Z,8.53
2018-11-13T15:38:35.130Z,10.65
2018-11-13T15:41:03.494Z,8.33
2018-11-13T15:43:31.766Z,9.60
2018-11-13T15:45:59.974Z,8.33
2018-11-13T15:48:28.237Z,7.20
2018-11-13T15:50:56.528Z,8.45
2018-11-13T15:53:24.810Z,10.38
2018-11-13T15:55:53.788Z,10.85
2018-11-13T15:58:22.109Z,6.55
2018-11-13T16:00:50.465Z,21.30
2018-11-13T16:03:22.465Z,10.68
2018-11-13T16:05:55.065Z,9.93
2018-11-13T16:08:23.359Z,13.88
2018-11-13T16:10:51.658Z,7.42
2018-11-13T16:13:19.974Z,13.22
2018-11-13T16:15:48.295Z,16.42
2018-11-13T16:18:18.123Z,12.47
2018-11-13T16:20:46.336Z,8.33
2018-11-13T16:23:14.597Z,14.07
2018-11-13T16:25:42.805Z,7.92
2018-11-13T16:28:11.074Z,17.00
2018-11-13T16:30:39.945Z,10.35
2018-11-13T16:33:08.358Z,8.78
2018-11-13T16:35:36.654Z,8.83
2018-11-13T16:38:06.508Z,10.20
2018-11-13T16:40:34.854Z,12.65
2018-11-13T16:43:03.123Z,9.43
2018-11-13T16:45:32.499Z,10.65
2018-11-13T16:48:01.398Z,14.28
2018-11-13T16:50:32.009Z,10.10
2018-11-13T16:53:00.393Z,6.87
2018-11-13T16:55:34.114Z,22.77
2018-11-13T16:58:03.606Z,11.12
2018-11-13T17:00:31.916Z,11.57
2018-11-13T17:03:00.083Z,12.63
2018-11-13T17:05:29.060Z,11.60
2018-11-13T17:07:57.143Z,15.35
2018-11-13T17:10:26.625Z,9.50
2018-11-13T17:13:02.317Z,12.05
2018-11-13T17:15:31.514Z,13.83
2018-11-13T17:18:01.084Z,14.65
2018-11-13T17:20:29.414Z,10.30
2018-11-13T17:22:57.632Z,11.73
2018-11-13T17:25:27.493Z,10.28
2018-11-13T17:27:56.093Z,13.10
2018-11-13T17:30:31.249Z,10.85
2018-11-13T17:33:00.732Z,14.58
2018-11-13T17:35:29.626Z,14.33
2018-11-13T17:37:58.366Z,15.32
2018-11-13T17:40:30.758Z,9.00
2018-11-13T17:43:00.539Z,15.10
2018-11-13T17:45:32.073Z,11.20
2018-11-13T17:48:00.534Z,14.68
2018-11-13T17:50:34.029Z,16.50
2018-11-13T17:53:02.654Z,13.60
2018-11-13T17:55:30.933Z,15.40
2018-11-13T17:58:01.362Z,16.85
2018-11-13T18:00:31.506Z,27.50
2018-11-13T18:03:00.946Z,18.37
2018-11-13T18:05:29.645Z,17.98
2018-11-13T18:07:59.055Z,19.40
2018-11-13T18:10:28.214Z,18.82
2018-11-13T18:12:56.501Z,15.50
2018-11-13T18:15:26.070Z,15.18
2018-11-13T18:17:54.300Z,18.37
2018-11-13T18:20:24.799Z,13.95
2018-11-13T18:22:53.078Z,13.28
2018-11-13T18:25:21.412Z,16.57
2018-11-13T18:27:51.847Z,17.35
2018-11-13T18:30:23.535Z,16.17
2018-11-13T18:32:52.045Z,20.60
2018-11-13T18:35:23.673Z,18.37
2018-11-13T18:37:52.729Z,20.02
2018-11-13T18:40:21.662Z,20.68
2018-11-13T18:42:50.661Z,15.38
2018-11-13T18:45:22.358Z,16.57
2018-11-13T18:47:50.625Z,11.12
2018-11-13T18:50:21.418Z,12.80
2018-11-13T18:52:49.590Z,11.28
2018-11-13T18:55:18.157Z,13.18
2018-11-13T18:57:46.609Z,13.95
2018-11-13T19:00:18.037Z,15.80
2018-11-13T19:02:46.308Z,19.27
2018-11-13T19:05:15.432Z,12.05
2018-11-13T19:07:43.919Z,20.10
2018-11-13T19:10:17.630Z,15.00
2018-11-13T19:12:46.469Z,15.72
2018-11-13T19:15:15.561Z,14.83
2018-11-13T19:17:43.839Z,13.45
2018-11-13T19:20:15.628Z,15.50
2018-11-13T19:22:43.882Z,9.55
2018-11-13T19:25:18.857Z,13.68
2018-11-13T19:27:47.759Z,13.43
2018-11-13T19:30:16.875Z,12.95
2018-11-13T19:32:45.093Z,13.72
2018-11-13T19:35:13.940Z,14.65
2018-11-13T19:37:42.133Z,16.85
2018-11-13T19:40:27.470Z,17.30
2018-11-13T19:42:56.582Z,20.37
2018-11-13T19:45:24.893Z,19.65
2018-11-13T19:47:53.263Z,16.80
2018-11-13T19:50:23.092Z,14.25
2018-11-13T19:52:51.349Z,18.77
2018-11-13T19:55:20.557Z,17.55
2018-11-13T19:57:49.125Z,12.82
2018-11-13T20:00:18.707Z,19.77
2018-11-13T20:02:47.634Z,20.77
2018-11-13T20:05:15.914Z,12.50
2018-11-13T20:07:44.191Z,16.62
2018-11-13T20:10:19.406Z,15.40
2018-11-13T20:12:48.705Z,10.65
2018-11-13T20:15:17.175Z,20.37
2018-11-13T20:17:45.463Z,19.48
2018-11-13T20:20:17.118Z,20.37
2018-11-13T20:22:45.869Z,19.23
2018-11-13T20:25:15.542Z,17.62
2018-11-13T20:27:43.829Z,13.00
2018-11-13T20:30:16.354Z,17.98
2018-11-13T20:32:44.572Z,15.38
2018-11-13T20:35:13.218Z,16.42
2018-11-13T20:37:42.565Z,18.40
2018-11-13T20:40:13.062Z,15.65
2018-11-13T20:42:41.818Z,14.13
2018-11-13T20:45:10.686Z,15.08
2018-11-13T20:47:39.301Z,16.75
2018-11-13T20:50:09.330Z,20.30
2018-11-13T20:52:37.781Z,14.18
2018-11-13T20:55:06.661Z,11.78
2018-11-13T20:57:34.998Z,16.27
2018-11-13T21:00:03.350Z,14.70
2018-11-13T21:02:31.604Z,15.93
2018-11-13T21:04:59.827Z,20.60
2018-11-13T21:07:28.048Z,22.22
2018-11-13T21:09:56.273Z,16.87
2018-11-13T21:12:25.243Z,12.80
2018-11-13T21:14:53.552Z,18.60
2018-11-13T21:17:22.014Z,11.28
2018-11-13T21:19:50.386Z,20.23
2018-11-13T21:22:18.426Z,16.55
2018-11-13T21:24:46.659Z,14.78
2018-11-13T21:27:14.911Z,15.58
2018-11-13T21:29:43.221Z,17.55
2018-11-13T21:32:11.550Z,15.03
2018-11-13T21:34:39.822Z,20.68
2018-11-13T21:37:08.850Z,22.85
2018-11-13T21:39:37.032Z,16.45
2018-11-13T21:42:12.382Z,19.15
2018-11-13T21:44:40.685Z,19.32
2018-11-13T21:47:08.937Z,20.17
2018-11-13T21:49:37.262Z,13.95
2018-11-13T21:52:05.569Z,19.45
2018-11-13T21:54:33.790Z,16.30
2018-11-13T21:57:02.093Z,19.67
2018-11-13T21:59:30.295Z,17.57
2018-11-13T22:01:58.571Z,16.80
2018-11-13T22:04:26.907Z,20.65
2018-11-13T22:06:55.117Z,17.65
2018-11-13T22:09:23.345Z,20.17
2018-11-13T22:11:51.541Z,18.48
2018-11-13T22:14:19.944Z,17.73
2018-11-13T22:16:48.268Z,17.70
2018-11-13T22:19:16.267Z,17.17
2018-11-13T22:21:44.542Z,20.23
2018-11-13T22:24:12.893Z,20.72
2018-11-13T22:26:41.126Z,16.50
2018-11-13T22:29:09.453Z,20.15
2018-11-13T22:31:37.569Z,19.25
2018-11-13T22:34:06.300Z,17.35
2018-11-13T22:36:34.808Z,18.45
2018-11-13T22:39:02.916Z,24.47
2018-11-13T22:41:31.182Z,19.50
2018-11-13T22:43:59.457Z,20.05
2018-11-13T22:46:27.663Z,22.87
2018-11-13T22:48:55.944Z,27.73
2018-11-13T22:51:24.242Z,24.60
2018-11-13T22:53:52.534Z,51.28
2018-11-13T22:56:20.813Z,24.98
2018-11-13T22:58:49.009Z,22.42
2018-11-13T23:01:17.379Z,26.12
2018-11-13T23:03:45.670Z,24.50
2018-11-13T23:06:13.918Z,19.35
2018-11-13T23:08:42.118Z,21.40
2018-11-13T23:11:12.830Z,19.00
2018-11-13T23:13:41.210Z,39.25
2018-11-13T23:16:09.571Z,27.60
2018-11-13T23:18:37.779Z,25.37
2018-11-13T23:21:06.090Z,20.95
2018-11-13T23:23:34.354Z,22.15
2018-11-13T23:26:02.608Z,20.75
2018-11-13T23:28:31.126Z,22.05
2018-11-13T23:30:59.367Z,20.43
2018-11-13T23:33:27.613Z,23.62
2018-11-13T23:35:55.908Z,23.27
2018-11-13T23:38:24.216Z,26.52
2018-11-13T23:40:52.666Z,30.52
2018-11-13T23:43:20.823Z,30.92
2018-11-13T23:45:49.199Z,25.55
2018-11-13T23:48:17.402Z,20.68
2018-11-13T23:50:45.744Z,19.12
2018-11-13T23:53:13.977Z,22.85
2018-11-13T23:55:42.206Z,15.72
2018-11-13T23:58:10.463Z,20.20
